sensor_id;sensor_type;location;lat;lon;timestamp;pressure;altitude;pressure_sealevel;temperature;humidity
4123;BME280;2075;51.062;6.920;2022-12-07T00:00:05;-11667.00;;;-144.48;100.00
4123;BME280;2075;51.062;6.920;2022-12-07T00:02:51;-11667.00;;;-144.48;100.00
4123;BME280;2075;51.062;6.920;2022-12-07T00:05:37;-11667.00;;;-144.48;100.00
4123;BME280;2075;51.062;6.920;2022-12-07T00:08:22;-11667.00;;;-144.48;100.00
4123;BME280;2075;51.062;6.920;2022-12-07T00:11:12;-11667.00;;;-144.48;100.00
4123;BME280;2075;51.062;6.920;2022-12-07T00:13:59;-11667.00;;;-144.48;100.00
4123;BME280;2075;51.062;6.920;2022-12-07T00:16:49;-11667.00;;;-144.48;100.00
4123;BME280;2075;51.062;6.920;2022-12-07T00:19:34;-11665.53;;;-144.48;100.00
4123;BME280;2075;51.062;6.920;2022-12-07T00:22:20;-11413.53;;;-144.48;100.00
4123;BME280;2075;51.062;6.920;2022-12-07T00:25:06;-11161.53;;;-144.48;100.00
4123;BME280;2075;51.062;6.920;2022-12-07T00:27:53;-11413.53;;;-144.48;100.00
4123;BME280;2075;51.062;6.920;2022-12-07T00:30:40;-11665.53;;;-144.48;100.00
4123;BME280;2075;51.062;6.920;2022-12-07T00:33:25;-11665.53;;;-144.48;100.00
4123;BME280;2075;51.062;6.920;2022-12-07T00:36:14;-11665.53;;;-144.48;100.00
4123;BME280;2075;51.062;6.920;2022-12-07T00:39:00;-11665.53;;;-144.48;100.00
4123;BME280;2075;51.062;6.920;2022-12-07T00:41:46;-11413.53;;;-144.48;100.00
4123;BME280;2075;51.062;6.920;2022-12-07T00:44:33;-11161.53;;;-144.48;100.00
4123;BME280;2075;51.062;6.920;2022-12-07T00:47:18;-10909.50;;;-144.48;100.00
4123;BME280;2075;51.062;6.920;2022-12-07T00:50:07;-10405.38;;;-144.48;100.00
4123;BME280;2075;51.062;6.920;2022-12-07T00:52:52;-10909.50;;;-144.48;100.00
4123;BME280;2075;51.062;6.920;2022-12-07T00:55:37;-11161.53;;;-144.48;100.00
4123;BME280;2075;51.062;6.920;2022-12-07T00:58:25;-11161.53;;;-144.48;100.00
4123;BME280;2075;51.062;6.920;2022-12-07T01:01:11;-11161.53;;;-144.48;100.00
4123;BME280;2075;51.062;6.920;2022-12-07T01:03:57;-11413.53;;;-144.48;100.00
4123;BME280;2075;51.062;6.920;2022-12-07T01:06:45;-11665.53;;;-144.48;100.00
4123;BME280;2075;51.062;6.920;2022-12-07T01:09:30;-11413.53;;;-144.48;100.00
4123;BME280;2075;51.062;6.920;2022-12-07T01:12:15;-11413.53;;;-144.48;100.00
4123;BME280;2075;51.062;6.920;2022-12-07T01:15:01;-11665.53;;;-144.48;100.00
4123;BME280;2075;51.062;6.920;2022-12-07T01:17:48;-11665.53;;;-144.48;100.00
4123;BME280;2075;51.062;6.920;2022-12-07T01:20:33;-11665.53;;;-144.48;100.00
4123;BME280;2075;51.062;6.920;2022-12-07T01:23:20;-11665.53;;;-144.48;100.00
4123;BME280;2075;51.062;6.920;2022-12-07T01:26:07;-11665.53;;;-144.48;100.00
4123;BME280;2075;51.062;6.920;2022-12-07T01:28:53;-11665.53;;;-144.48;100.00
4123;BME280;2075;51.062;6.920;2022-12-07T01:31:41;-11665.53;;;-144.48;100.00
4123;BME280;2075;51.062;6.920;2022-12-07T01:34:28;-11665.53;;;-144.48;100.00
4123;BME280;2075;51.062;6.920;2022-12-07T01:37:13;-11665.53;;;-144.48;100.00
4123;BME280;2075;51.062;6.920;2022-12-07T01:39:58;-11667.00;;;-144.48;100.00
4123;BME280;2075;51.062;6.920;2022-12-07T01:42:46;-11667.00;;;-144.48;100.00
4123;BME280;2075;51.062;6.920;2022-12-07T01:45:38;-11667.00;;;-144.48;100.00
4123;BME280;2075;51.062;6.920;2022-12-07T01:48:27;-11667.00;;;-144.48;100.00
4123;BME280;2075;51.062;6.920;2022-12-07T01:51:15;-11667.00;;;-144.48;100.00
4123;BME280;2075;51.062;6.920;2022-12-07T01:54:00;-11667.00;;;-144.48;100.00
4123;BME280;2075;51.062;6.920;2022-12-07T01:56:50;-11667.00;;;-144.48;100.00
4123;BME280;2075;51.062;6.920;2022-12-07T01:59:37;-11667.00;;;-144.48;100.00
4123;BME280;2075;51.062;6.920;2022-12-07T02:02:26;-11667.00;;;-144.48;100.00
4123;BME280;2075;51.062;6.920;2022-12-07T02:05:13;-11665.53;;;-144.48;100.00
4123;BME280;2075;51.062;6.920;2022-12-07T02:08:07;-11665.53;;;-144.48;100.00
4123;BME280;2075;51.062;6.920;2022-12-07T02:10:53;-11665.53;;;-144.48;100.00
4123;BME280;2075;51.062;6.920;2022-12-07T02:13:43;-11665.53;;;-144.48;100.00
4123;BME280;2075;51.062;6.920;2022-12-07T02:16:36;-11667.00;;;-144.48;100.00
4123;BME280;2075;51.062;6.920;2022-12-07T02:19:50;-11667.00;;;-144.48;100.00
4123;BME280;2075;51.062;6.920;2022-12-07T02:23:00;-11667.00;;;-144.48;100.00
4123;BME280;2075;51.062;6.920;2022-12-07T02:26:02;-11667.00;;;-144.48;100.00
4123;BME280;2075;51.062;6.920;2022-12-07T02:29:09;-11667.00;;;-144.48;100.00
4123;BME280;2075;51.062;6.920;2022-12-07T02:32:01;-11667.00;;;-144.48;100.00
4123;BME280;2075;51.062;6.920;2022-12-07T02:34:50;-11667.00;;;-144.48;100.00
4123;BME280;2075;51.062;6.920;2022-12-07T02:37:42;-11667.00;;;-144.48;100.00
4123;BME280;2075;51.062;6.920;2022-12-07T02:40:35;-11667.00;;;-144.48;100.00
4123;BME280;2075;51.062;6.920;2022-12-07T02:43:24;-11667.00;;;-144.48;100.00
4123;BME280;2075;51.062;6.920;2022-12-07T02:46:14;-11667.00;;;-144.48;100.00
4123;BME280;2075;51.062;6.920;2022-12-07T02:49:02;-11667.00;;;-144.48;100.00
4123;BME280;2075;51.062;6.920;2022-12-07T02:51:48;-11667.00;;;-144.48;100.00
4123;BME280;2075;51.062;6.920;2022-12-07T02:54:33;-11667.00;;;-144.48;100.00
4123;BME280;2075;51.062;6.920;2022-12-07T02:57:28;-11667.00;;;-144.48;100.00
4123;BME280;2075;51.062;6.920;2022-12-07T03:00:25;-11667.00;;;-144.48;100.00
4123;BME280;2075;51.062;6.920;2022-12-07T03:03:14;-11667.00;;;-144.48;100.00
4123;BME280;2075;51.062;6.920;2022-12-07T03:06:11;-11667.00;;;-144.48;100.00
4123;BME280;2075;51.062;6.920;2022-12-07T03:09:07;-11667.00;;;-144.48;100.00
4123;BME280;2075;51.062;6.920;2022-12-07T03:12:02;-11667.00;;;-144.48;100.00
4123;BME280;2075;51.062;6.920;2022-12-07T03:14:56;-11667.00;;;-144.48;100.00
4123;BME280;2075;51.062;6.920;2022-12-07T03:17:44;-11667.00;;;-144.48;100.00
4123;BME280;2075;51.062;6.920;2022-12-07T03:20:33;-11667.00;;;-144.48;100.00
4123;BME280;2075;51.062;6.920;2022-12-07T03:23:22;-11667.00;;;-144.48;100.00
4123;BME280;2075;51.062;6.920;2022-12-07T03:26:12;-11667.00;;;-144.48;100.00
4123;BME280;2075;51.062;6.920;2022-12-07T03:29:02;-11667.00;;;-144.48;100.00
4123;BME280;2075;51.062;6.920;2022-12-07T03:31:54;-11667.00;;;-144.48;100.00
4123;BME280;2075;51.062;6.920;2022-12-07T03:34:47;-11667.00;;;-144.48;100.00
4123;BME280;2075;51.062;6.920;2022-12-07T03:37:38;-11667.00;;;-144.48;100.00
4123;BME280;2075;51.062;6.920;2022-12-07T03:40:29;-11667.00;;;-144.48;100.00
4123;BME280;2075;51.062;6.920;2022-12-07T03:43:16;-11667.00;;;-144.48;100.00
4123;BME280;2075;51.062;6.920;2022-12-07T03:46:13;-11667.00;;;-144.48;100.00
4123;BME280;2075;51.062;6.920;2022-12-07T03:49:08;-11667.00;;;-144.48;100.00
4123;BME280;2075;51.062;6.920;2022-12-07T03:51:59;-11667.00;;;-144.48;100.00
4123;BME280;2075;51.062;6.920;2022-12-07T03:54:52;-11667.00;;;-144.48;100.00
4123;BME280;2075;51.062;6.920;2022-12-07T03:57:41;-11667.00;;;-144.48;100.00
4123;BME280;2075;51.062;6.920;2022-12-07T04:00:28;-11667.00;;;-144.48;100.00
4123;BME280;2075;51.062;6.920;2022-12-07T04:03:13;-11667.00;;;-144.48;100.00
4123;BME280;2075;51.062;6.920;2022-12-07T04:05:59;-11667.00;;;-144.48;100.00
4123;BME280;2075;51.062;6.920;2022-12-07T04:08:44;-11667.00;;;-144.48;100.00
4123;BME280;2075;51.062;6.920;2022-12-07T04:11:31;-11667.00;;;-144.48;100.00
4123;BME280;2075;51.062;6.920;2022-12-07T04:14:16;-11667.00;;;-144.48;100.00
4123;BME280;2075;51.062;6.920;2022-12-07T04:17:04;-11667.00;;;-144.48;100.00
4123;BME280;2075;51.062;6.920;2022-12-07T04:19:49;-11667.00;;;-144.48;100.00
4123;BME280;2075;51.062;6.920;2022-12-07T04:22:35;-11667.00;;;-144.48;100.00
4123;BME280;2075;51.062;6.920;2022-12-07T04:25:20;-11667.00;;;-144.48;100.00
4123;BME280;2075;51.062;6.920;2022-12-07T04:28:07;-11667.00;;;-144.48;100.00
4123;BME280;2075;51.062;6.920;2022-12-07T04:30:52;-11667.00;;;-144.48;100.00
4123;BME280;2075;51.062;6.920;2022-12-07T04:33:37;-11667.00;;;-144.48;100.00
4123;BME280;2075;51.062;6.920;2022-12-07T04:36:23;-11667.00;;;-144.48;100.00
4123;BME280;2075;51.062;6.920;2022-12-07T04:39:17;-11667.00;;;-144.48;100.00
4123;BME280;2075;51.062;6.920;2022-12-07T04:42:04;-11667.00;;;-144.48;100.00
4123;BME280;2075;51.062;6.920;2022-12-07T04:44:50;-11667.00;;;-144.48;100.00
4123;BME280;2075;51.062;6.920;2022-12-07T04:47:36;-11667.00;;;-144.48;100.00
4123;BME280;2075;51.062;6.920;2022-12-07T04:50:21;-11667.00;;;-144.48;100.00
4123;BME280;2075;51.062;6.920;2022-12-07T04:53:07;-11667.00;;;-144.48;100.00
4123;BME280;2075;51.062;6.920;2022-12-07T04:55:52;-11667.00;;;-144.48;100.00
4123;BME280;2075;51.062;6.920;2022-12-07T04:58:37;-11667.00;;;-144.48;100.00
4123;BME280;2075;51.062;6.920;2022-12-07T05:01:24;-11667.00;;;-144.48;100.00
4123;BME280;2075;51.062;6.920;2022-12-07T05:04:10;-11667.00;;;-144.48;100.00
4123;BME280;2075;51.062;6.920;2022-12-07T05:06:55;-11667.00;;;-144.48;100.00
4123;BME280;2075;51.062;6.920;2022-12-07T05:09:41;-11667.00;;;-144.48;100.00
4123;BME280;2075;51.062;6.920;2022-12-07T05:12:26;-11667.00;;;-144.48;100.00
4123;BME280;2075;51.062;6.920;2022-12-07T05:15:12;-11667.00;;;-144.48;100.00
4123;BME280;2075;51.062;6.920;2022-12-07T05:18:01;-11667.00;;;-144.48;100.00
4123;BME280;2075;51.062;6.920;2022-12-07T05:20:47;-11667.00;;;-144.48;100.00
4123;BME280;2075;51.062;6.920;2022-12-07T05:23:34;-11667.00;;;-144.48;100.00
4123;BME280;2075;51.062;6.920;2022-12-07T05:26:20;-11667.00;;;-144.48;100.00
4123;BME280;2075;51.062;6.920;2022-12-07T05:29:05;-11667.00;;;-144.48;100.00
4123;BME280;2075;51.062;6.920;2022-12-07T05:31:51;-11667.00;;;-144.48;100.00
4123;BME280;2075;51.062;6.920;2022-12-07T05:34:37;-11667.00;;;-144.48;100.00
4123;BME280;2075;51.062;6.920;2022-12-07T05:37:24;-11667.00;;;-144.48;100.00
4123;BME280;2075;51.062;6.920;2022-12-07T05:40:11;-11667.00;;;-144.48;100.00
4123;BME280;2075;51.062;6.920;2022-12-07T05:42:56;-11667.00;;;-144.48;100.00
4123;BME280;2075;51.062;6.920;2022-12-07T05:45:42;-11667.00;;;-144.48;100.00
4123;BME280;2075;51.062;6.920;2022-12-07T05:48:27;-11667.00;;;-144.48;100.00
4123;BME280;2075;51.062;6.920;2022-12-07T05:51:14;-11667.00;;;-144.48;100.00
4123;BME280;2075;51.062;6.920;2022-12-07T05:54:02;-11667.00;;;-144.48;100.00
4123;BME280;2075;51.062;6.920;2022-12-07T05:56:47;-11667.00;;;-144.48;100.00
4123;BME280;2075;51.062;6.920;2022-12-07T05:59:35;-11667.00;;;-144.48;100.00
4123;BME280;2075;51.062;6.920;2022-12-07T06:02:20;-11667.00;;;-144.48;100.00
4123;BME280;2075;51.062;6.920;2022-12-07T06:05:06;-11667.00;;;-144.48;100.00
4123;BME280;2075;51.062;6.920;2022-12-07T06:07:53;-11667.00;;;-144.48;100.00
4123;BME280;2075;51.062;6.920;2022-12-07T06:10:38;-11667.00;;;-144.48;100.00
4123;BME280;2075;51.062;6.920;2022-12-07T06:13:23;-11667.00;;;-144.48;100.00
4123;BME280;2075;51.062;6.920;2022-12-07T06:16:08;-11667.00;;;-144.48;100.00
4123;BME280;2075;51.062;6.920;2022-12-07T06:18:53;-11667.00;;;-144.48;100.00
4123;BME280;2075;51.062;6.920;2022-12-07T06:21:38;-11667.00;;;-144.48;100.00
4123;BME280;2075;51.062;6.920;2022-12-07T06:24:28;-11667.00;;;-144.48;100.00
4123;BME280;2075;51.062;6.920;2022-12-07T06:27:13;-11667.00;;;-144.48;100.00
4123;BME280;2075;51.062;6.920;2022-12-07T06:29:59;-11667.00;;;-144.48;100.00
4123;BME280;2075;51.062;6.920;2022-12-07T06:32:50;-11667.00;;;-144.48;100.00
4123;BME280;2075;51.062;6.920;2022-12-07T06:35:35;-11667.00;;;-144.48;100.00
4123;BME280;2075;51.062;6.920;2022-12-07T06:38:21;-11667.00;;;-144.48;100.00
4123;BME280;2075;51.062;6.920;2022-12-07T06:41:07;-11667.00;;;-144.48;100.00
4123;BME280;2075;51.062;6.920;2022-12-07T06:43:55;-11667.00;;;-144.48;100.00
4123;BME280;2075;51.062;6.920;2022-12-07T06:46:40;-11667.00;;;-144.48;100.00
4123;BME280;2075;51.062;6.920;2022-12-07T06:49:26;-11667.00;;;-144.48;100.00
4123;BME280;2075;51.062;6.920;2022-12-07T06:52:11;-11667.00;;;-144.48;100.00
4123;BME280;2075;51.062;6.920;2022-12-07T06:54:56;-11667.00;;;-144.48;100.00
4123;BME280;2075;51.062;6.920;2022-12-07T06:57:45;-11667.00;;;-144.48;100.00
4123;BME280;2075;51.062;6.920;2022-12-07T07:00:30;-11667.00;;;-144.48;100.00
4123;BME280;2075;51.062;6.920;2022-12-07T07:03:16;-11667.00;;;-144.48;100.00
4123;BME280;2075;51.062;6.920;2022-12-07T07:06:05;-11667.00;;;-144.48;100.00
4123;BME280;2075;51.062;6.920;2022-12-07T07:08:53;-11667.00;;;-144.48;100.00
4123;BME280;2075;51.062;6.920;2022-12-07T07:11:40;-11667.00;;;-144.48;100.00
4123;BME280;2075;51.062;6.920;2022-12-07T07:14:26;-11667.00;;;-144.48;100.00
4123;BME280;2075;51.062;6.920;2022-12-07T07:17:12;-11667.00;;;-144.48;100.00
4123;BME280;2075;51.062;6.920;2022-12-07T07:19:58;-11667.00;;;-144.48;100.00
4123;BME280;2075;51.062;6.920;2022-12-07T07:22:44;-11667.00;;;-144.48;100.00
4123;BME280;2075;51.062;6.920;2022-12-07T07:25:30;-11667.00;;;-144.48;100.00
4123;BME280;2075;51.062;6.920;2022-12-07T07:28:16;-11667.00;;;-144.48;100.00
4123;BME280;2075;51.062;6.920;2022-12-07T07:31:06;-11667.00;;;-144.48;100.00
4123;BME280;2075;51.062;6.920;2022-12-07T07:33:51;-11667.00;;;-144.48;100.00
4123;BME280;2075;51.062;6.920;2022-12-07T07:36:40;-11667.00;;;-144.48;100.00
4123;BME280;2075;51.062;6.920;2022-12-07T07:39:26;-11667.00;;;-144.48;100.00
4123;BME280;2075;51.062;6.920;2022-12-07T07:42:12;-11667.00;;;-144.48;100.00
4123;BME280;2075;51.062;6.920;2022-12-07T07:45:06;-11667.00;;;-144.48;100.00
4123;BME280;2075;51.062;6.920;2022-12-07T07:47:56;-11667.00;;;-144.48;100.00
4123;BME280;2075;51.062;6.920;2022-12-07T07:50:41;-11667.00;;;-144.48;100.00
4123;BME280;2075;51.062;6.920;2022-12-07T07:53:27;-11667.00;;;-144.48;100.00
4123;BME280;2075;51.062;6.920;2022-12-07T07:56:15;-11667.00;;;-144.48;100.00
4123;BME280;2075;51.062;6.920;2022-12-07T07:59:04;-11667.00;;;-144.48;100.00
4123;BME280;2075;51.062;6.920;2022-12-07T08:01:52;-11667.00;;;-144.48;100.00
4123;BME280;2075;51.062;6.920;2022-12-07T08:04:39;-11667.00;;;-144.48;100.00
4123;BME280;2075;51.062;6.920;2022-12-07T08:07:25;-11665.53;;;-144.48;100.00
4123;BME280;2075;51.062;6.920;2022-12-07T08:10:12;-11413.53;;;-144.48;100.00
4123;BME280;2075;51.062;6.920;2022-12-07T08:12:58;-11161.53;;;-144.48;100.00
4123;BME280;2075;51.062;6.920;2022-12-07T08:15:56;-10909.50;;;-144.48;100.00
4123;BME280;2075;51.062;6.920;2022-12-07T08:18:42;-10657.44;;;-144.48;100.00
4123;BME280;2075;51.062;6.920;2022-12-07T08:21:29;-10405.38;;;-144.48;100.00
4123;BME280;2075;51.062;6.920;2022-12-07T08:24:15;-8892.53;;;-144.48;100.00
4123;BME280;2075;51.062;6.920;2022-12-07T08:27:00;-7631.31;;;-144.48;100.00
4123;BME280;2075;51.062;6.920;2022-12-07T08:29:45;-7883.59;;;-144.48;100.00
4123;BME280;2075;51.062;6.920;2022-12-07T08:32:31;-7379.00;;;-144.48;100.00
4123;BME280;2075;51.062;6.920;2022-12-07T08:35:21;-5612.34;;;-144.48;100.00
4123;BME280;2075;51.062;6.920;2022-12-07T08:38:15;-3592.09;;;-144.48;100.00
4123;BME280;2075;51.062;6.920;2022-12-07T08:41:00;-2328.84;;;-144.48;100.00
4123;BME280;2075;51.062;6.920;2022-12-07T08:43:46;-1570.63;;;-144.48;100.00
4123;BME280;2075;51.062;6.920;2022-12-07T08:46:35;-2328.84;;;-144.48;100.00
4123;BME280;2075;51.062;6.920;2022-12-07T08:49:27;-1317.84;;;-144.48;100.00
4123;BME280;2075;51.062;6.920;2022-12-07T08:52:16;199.19;;;-144.48;100.00
4123;BME280;2075;51.062;6.920;2022-12-07T08:55:05;957.97;;;-144.48;100.00
4123;BME280;2075;51.062;6.920;2022-12-07T08:57:51;705.03;;;-144.48;100.00
4123;BME280;2075;51.062;6.920;2022-12-07T09:00:36;2982.25;;;-144.48;100.00
4123;BME280;2075;51.062;6.920;2022-12-07T09:03:22;2476.06;;;-144.48;100.00
4123;BME280;2075;51.062;6.920;2022-12-07T09:06:07;1463.94;;;-144.48;100.00
4123;BME280;2075;51.062;6.920;2022-12-07T09:08:55;3994.88;;;-144.48;100.00
4123;BME280;2075;51.062;6.920;2022-12-07T09:11:44;7288.00;;;-144.48;100.00
4123;BME280;2075;51.062;6.920;2022-12-07T09:14:30;7541.47;;;-144.48;100.00
4123;BME280;2075;51.062;6.920;2022-12-07T09:17:15;8048.44;;;-144.48;100.00
4123;BME280;2075;51.062;6.920;2022-12-07T09:20:01;10077.09;;;-144.48;100.00
4123;BME280;2075;51.062;6.920;2022-12-07T09:22:47;8809.03;;;-144.48;100.00
4123;BME280;2075;51.062;6.920;2022-12-07T09:25:35;7288.00;;;-144.48;100.00
4123;BME280;2075;51.062;6.920;2022-12-07T09:28:22;7541.47;;;-144.48;100.00
4123;BME280;2075;51.062;6.920;2022-12-07T09:31:12;6527.75;;;-144.48;100.00
4123;BME280;2075;51.062;6.920;2022-12-07T09:33:59;6274.38;;;-144.48;100.00
4123;BME280;2075;51.062;6.920;2022-12-07T09:36:45;6527.75;;;-144.48;100.00
4123;BME280;2075;51.062;6.920;2022-12-07T09:39:31;9316.19;;;-144.48;100.00
4123;BME280;2075;51.062;6.920;2022-12-07T09:42:26;16170.53;;;-144.48;100.00
4123;BME280;2075;51.062;6.920;2022-12-07T09:45:19;21257.00;;;-144.48;100.00
4123;BME280;2075;51.062;6.920;2022-12-07T09:48:16;28901.31;;;-144.48;100.00
4123;BME280;2075;51.062;6.920;2022-12-07T09:51:12;28646.22;;;-144.48;100.00
4123;BME280;2075;51.062;6.920;2022-12-07T09:53:59;29666.69;;;-144.48;100.00
4123;BME280;2075;51.062;6.920;2022-12-07T09:56:48;30177.06;;;-144.48;100.00
4123;BME280;2075;51.062;6.920;2022-12-07T09:59:34;30687.50;;;-144.48;100.00
4123;BME280;2075;51.062;6.920;2022-12-07T10:02:26;34262.75;;;-144.48;100.00
4123;BME280;2075;51.062;6.920;2022-12-07T10:05:20;36818.88;;;-144.48;100.00
4123;BME280;2075;51.062;6.920;2022-12-07T10:08:08;32474.66;;;-144.48;100.00
4123;BME280;2075;51.062;6.920;2022-12-07T10:10:56;33240.88;;;-144.48;100.00
4123;BME280;2075;51.062;6.920;2022-12-07T10:13:43;30177.06;;;-144.48;100.00
4123;BME280;2075;51.062;6.920;2022-12-07T10:16:39;29156.41;;;-144.48;100.00
4123;BME280;2075;51.062;6.920;2022-12-07T10:19:28;29921.88;;;-144.48;100.00
4123;BME280;2075;51.062;6.920;2022-12-07T10:22:15;26351.25;;;-144.48;100.00
4123;BME280;2075;51.062;6.920;2022-12-07T10:25:08;24057.88;;;-144.48;100.00
4123;BME280;2075;51.062;6.920;2022-12-07T10:27:58;27371.03;;;-144.48;100.00
4123;BME280;2075;51.062;6.920;2022-12-07T10:30:50;29156.41;;;-144.48;100.00
4123;BME280;2075;51.062;6.920;2022-12-07T10:33:37;29666.69;;;-144.48;100.00
4123;BME280;2075;51.062;6.920;2022-12-07T10:36:34;27626.03;;;-144.48;100.00
4123;BME280;2075;51.062;6.920;2022-12-07T10:39:21;24057.88;;;-144.48;100.00
4123;BME280;2075;51.062;6.920;2022-12-07T10:42:16;27371.03;;;-144.48;100.00
4123;BME280;2075;51.062;6.920;2022-12-07T10:45:09;32474.66;;;-144.48;100.00
4123;BME280;2075;51.062;6.920;2022-12-07T10:47:59;33751.78;;;-144.48;100.00
4123;BME280;2075;51.062;6.920;2022-12-07T10:50:54;36307.50;;;-144.48;100.00
4123;BME280;2075;51.062;6.920;2022-12-07T10:53:53;35029.38;;;-144.48;100.00
4123;BME280;2075;51.062;6.920;2022-12-07T10:57:02;36307.50;;;-144.48;100.00
4123;BME280;2075;51.062;6.920;2022-12-07T11:00:02;35796.19;;;-144.48;100.00
4123;BME280;2075;51.062;6.920;2022-12-07T11:02:59;36818.88;;;-144.48;100.00
4123;BME280;2075;51.062;6.920;2022-12-07T11:05:56;38609.28;;;-144.48;100.00
4123;BME280;2075;51.062;6.920;2022-12-07T11:08:54;43730.06;;;-144.48;100.00
4123;BME280;2075;51.062;6.920;2022-12-07T11:11:46;45267.84;;;-144.48;100.00
4123;BME280;2075;51.062;6.920;2022-12-07T11:14:40;42449.16;;;-144.48;100.00
4123;BME280;2075;51.062;6.920;2022-12-07T11:17:44;39888.75;;;-144.48;100.00
4123;BME280;2075;51.062;6.920;2022-12-07T11:20:43;37586.06;;;-144.48;100.00
4123;BME280;2075;51.062;6.920;2022-12-07T11:23:41;30687.50;;;-144.48;100.00
4123;BME280;2075;51.062;6.920;2022-12-07T11:26:45;24567.38;;;-144.48;100.00
4123;BME280;2075;51.062;6.920;2022-12-07T11:29:50;23039.09;;;-144.48;100.00
4123;BME280;2075;51.062;6.920;2022-12-07T11:33:01;25586.63;;;-144.48;100.00
4123;BME280;2075;51.062;6.920;2022-12-07T11:35:57;28136.09;;;-144.48;100.00
4123;BME280;2075;51.062;6.920;2022-12-07T11:38:51;31198.03;;;-144.48;100.00
4123;BME280;2075;51.062;6.920;2022-12-07T11:41:40;36563.16;;;-144.48;100.00
4123;BME280;2075;51.062;6.920;2022-12-07T11:44:31;39888.75;;;-144.48;100.00
4123;BME280;2075;51.062;6.920;2022-12-07T11:47:25;40144.72;;;-144.48;100.00
4123;BME280;2075;51.062;6.920;2022-12-07T11:50:25;37586.06;;;-144.48;100.00
4123;BME280;2075;51.062;6.920;2022-12-07T11:53:17;38097.66;;;-144.48;100.00
4123;BME280;2075;51.062;6.920;2022-12-07T11:56:08;34518.28;;;-144.48;100.00
4123;BME280;2075;51.062;6.920;2022-12-07T11:59:07;32219.28;;;-144.48;100.00
4123;BME280;2075;51.062;6.920;2022-12-07T12:02:12;26861.09;;;-144.48;100.00
4123;BME280;2075;51.062;6.920;2022-12-07T12:05:05;28901.31;;;-144.48;100.00
4123;BME280;2075;51.062;6.920;2022-12-07T12:08:03;30942.75;;;-144.48;100.00
4123;BME280;2075;51.062;6.920;2022-12-07T12:10:58;33496.31;;;-144.48;100.00
4123;BME280;2075;51.062;6.920;2022-12-07T12:14:14;43217.66;;;-144.48;100.00
4123;BME280;2075;51.062;6.920;2022-12-07T12:17:32;43986.31;;;-144.48;100.00
4123;BME280;2075;51.062;6.920;2022-12-07T12:20:26;44498.88;;;-144.48;100.00
4123;BME280;2075;51.062;6.920;2022-12-07T12:23:17;45011.50;;;-144.48;100.00
4123;BME280;2075;51.062;6.920;2022-12-07T12:26:07;47062.78;;;-144.48;100.00
4123;BME280;2075;51.062;6.920;2022-12-07T12:28:58;50142.03;;;-144.48;100.00
4123;BME280;2075;51.062;6.920;2022-12-07T12:31:48;61199.09;;;-144.48;100.00
4123;BME280;2075;51.062;6.920;2022-12-07T12:35:00;64806.84;;;-144.48;100.00
4123;BME280;2075;51.062;6.920;2022-12-07T12:37:52;62487.13;;;-144.48;100.00
4123;BME280;2075;51.062;6.920;2022-12-07T12:40:43;66096.25;;;-144.48;100.00
4123;BME280;2075;51.062;6.920;2022-12-07T12:43:49;66354.19;;;-144.48;100.00
4123;BME280;2075;51.062;6.920;2022-12-07T12:46:52;66870.13;;;-144.48;100.00
4123;BME280;2075;51.062;6.920;2022-12-07T12:49:38;67644.19;;;-144.48;100.00
4123;BME280;2075;51.062;6.920;2022-12-07T12:52:58;68934.69;;;-144.48;100.00
4123;BME280;2075;51.062;6.920;2022-12-07T12:56:12;77409.50;;;-144.48;100.00
4123;BME280;2075;51.062;6.920;2022-12-07T12:59:23;83401.16;;;-144.48;100.00
4123;BME280;2075;51.062;6.920;2022-12-07T13:02:20;85968.13;;;-144.48;100.00
4123;BME280;2075;51.062;6.920;2022-12-07T13:05:18;89733.94;;;-144.48;94.39
4123;BME280;2075;51.062;6.920;2022-12-07T13:08:14;91530.06;;;-144.48;93.56
4123;BME280;2075;51.062;6.920;2022-12-07T13:11:17;91481.34;;;-144.48;94.09
4123;BME280;2075;51.062;6.920;2022-12-07T13:14:38;90121.50;;;-144.48;94.80
4123;BME280;2075;51.062;6.920;2022-12-07T13:17:58;88032.03;;;-144.48;95.93
4123;BME280;2075;51.062;6.920;2022-12-07T13:20:50;81779.28;;;-144.48;97.82
4123;BME280;2075;51.062;6.920;2022-12-07T13:23:37;77300.34;;;-144.48;98.08
4123;BME280;2075;51.062;6.920;2022-12-07T13:26:26;72897.91;;;-144.48;99.01
4123;BME280;2075;51.062;6.920;2022-12-07T13:29:20;67128.13;;;-144.48;99.87
4123;BME280;2075;51.062;6.920;2022-12-07T13:32:26;63517.94;;;-144.48;100.00
4123;BME280;2075;51.062;6.920;2022-12-07T13:35:31;58109.78;;;-144.48;100.00
4123;BME280;2075;51.062;6.920;2022-12-07T13:38:25;51682.72;;;-144.48;100.00
4123;BME280;2075;51.062;6.920;2022-12-07T13:41:15;51169.06;;;-144.48;100.00
4123;BME280;2075;51.062;6.920;2022-12-07T13:44:08;46549.84;;;-144.48;100.00
4123;BME280;2075;51.062;6.920;2022-12-07T13:47:01;42705.31;;;-144.48;100.00
4123;BME280;2075;51.062;6.920;2022-12-07T13:49:51;38097.66;;;-144.48;100.00
4123;BME280;2075;51.062;6.920;2022-12-07T13:52:43;34007.25;;;-144.48;100.00
4123;BME280;2075;51.062;6.920;2022-12-07T13:55:29;32985.44;;;-144.48;100.00
4123;BME280;2075;51.062;6.920;2022-12-07T13:58:15;36051.84;;;-144.48;100.00
4123;BME280;2075;51.062;6.920;2022-12-07T14:01:00;37586.06;;;-144.48;100.00
4123;BME280;2075;51.062;6.920;2022-12-07T14:03:46;37586.06;;;-144.48;100.00
4123;BME280;2075;51.062;6.920;2022-12-07T14:06:32;38097.66;;;-144.48;100.00
4123;BME280;2075;51.062;6.920;2022-12-07T14:09:20;36818.88;;;-144.48;100.00
4123;BME280;2075;51.062;6.920;2022-12-07T14:12:12;35540.56;;;-144.48;100.00
4123;BME280;2075;51.062;6.920;2022-12-07T14:14:59;38097.66;;;-144.48;100.00
4123;BME280;2075;51.062;6.920;2022-12-07T14:17:50;38353.47;;;-144.48;100.00
4123;BME280;2075;51.062;6.920;2022-12-07T14:20:37;38097.66;;;-144.48;100.00
4123;BME280;2075;51.062;6.920;2022-12-07T14:23:25;43730.06;;;-144.48;100.00
4123;BME280;2075;51.062;6.920;2022-12-07T14:26:14;39632.81;;;-144.48;100.00
4123;BME280;2075;51.062;6.920;2022-12-07T14:29:18;35540.56;;;-144.48;100.00
4123;BME280;2075;51.062;6.920;2022-12-07T14:32:22;31963.94;;;-144.48;100.00
4123;BME280;2075;51.062;6.920;2022-12-07T14:35:14;30942.75;;;-144.48;100.00
4123;BME280;2075;51.062;6.920;2022-12-07T14:38:00;30432.28;;;-144.48;100.00
4123;BME280;2075;51.062;6.920;2022-12-07T14:40:47;29666.69;;;-144.48;100.00
4123;BME280;2075;51.062;6.920;2022-12-07T14:43:34;27371.03;;;-144.48;100.00